createdAt,value
2022-10-05T00:02:26.543Z,101659.59
2022-10-05T00:04:55.829Z,101653.97
2022-10-05T00:07:23.601Z,101660.25
2022-10-05T00:10:00.012Z,101657.25
2022-10-05T00:12:28.416Z,101646.97
2022-10-05T00:15:00.631Z,101652.41
2022-10-05T00:17:29.573Z,101655.91
2022-10-05T00:19:56.679Z,101657.72
2022-10-05T00:22:28.968Z,101657.19
2022-10-05T00:24:58.664Z,101652.19
2022-10-05T00:27:27.686Z,101658.34
2022-10-05T00:29:58.680Z,101662.28
2022-10-05T00:32:25.279Z,101661.28
2022-10-05T00:34:52.211Z,101653.81
2022-10-05T00:37:18.867Z,101658.28
2022-10-05T00:39:45.571Z,101655.13
2022-10-05T00:42:46.115Z,101660.56
2022-10-05T00:45:24.017Z,101663.06
2022-10-05T00:48:33.742Z,101651.78
2022-10-05T00:51:09.405Z,101638.53
2022-10-05T00:53:54.657Z,101627.28
2022-10-05T00:56:27.308Z,101609.34
2022-10-05T00:59:08.687Z,101621.28
2022-10-05T01:02:05.117Z,101646.47
2022-10-05T01:04:46.935Z,101648.75
2022-10-05T01:07:34.774Z,101652.03
2022-10-05T01:10:25.104Z,101643.25
2022-10-05T01:13:25.914Z,101642.44
2022-10-05T01:16:04.313Z,101635.59
2022-10-05T01:18:39.161Z,101643.72
2022-10-05T01:21:19.290Z,101651.28
2022-10-05T01:24:04.098Z,101638.88
2022-10-05T01:26:38.575Z,101634.44
2022-10-05T01:29:29.808Z,101635.38
2022-10-05T01:32:17.596Z,101641.53
2022-10-05T01:34:50.111Z,101645.31
2022-10-05T01:37:26.549Z,101638.50
2022-10-05T01:40:06.705Z,101622.47
2022-10-05T01:42:54.918Z,101621.50
2022-10-05T01:45:54.594Z,101627.06
2022-10-05T01:48:46.306Z,101606.22
2022-10-05T01:51:15.920Z,101600.94
2022-10-05T01:53:51.750Z,101598.44
2022-10-05T01:56:32.738Z,101588.38
2022-10-05T01:59:16.239Z,101587.53
2022-10-05T02:02:01.972Z,101599.94
2022-10-05T02:05:01.435Z,101602.22
2022-10-05T02:07:49.623Z,101604.88
2022-10-05T02:10:19.230Z,101601.22
2022-10-05T02:12:47.088Z,101599.72
2022-10-05T02:15:24.305Z,101610.31
2022-10-05T02:17:55.884Z,101614.09
2022-10-05T02:20:29.090Z,101618.56
2022-10-05T02:22:59.868Z,101612.13
2022-10-05T02:25:30.530Z,101611.97
2022-10-05T02:28:02.102Z,101607.53
2022-10-05T02:30:29.883Z,101614.47
2022-10-05T02:33:00.396Z,101617.13
2022-10-05T02:35:27.239Z,101613.94
2022-10-05T02:38:01.447Z,101611.13
2022-10-05T02:40:52.683Z,101613.94
2022-10-05T02:43:39.058Z,101612.59
2022-10-05T02:46:41.734Z,101628.47
2022-10-05T02:49:23.513Z,101625.97
2022-10-05T02:52:14.666Z,101629.44
2022-10-05T02:55:04.716Z,101629.97
2022-10-05T02:58:28.315Z,101619.84
2022-10-05T03:00:59.998Z,101627.47
2022-10-05T03:03:32.671Z,101622.19
2022-10-05T03:06:15.450Z,101619.69
2022-10-05T03:08:53.089Z,101622.34
2022-10-05T03:11:41.895Z,101621.50
2022-10-05T03:14:21.167Z,101627.34
2022-10-05T03:16:54.277Z,101623.84
2022-10-05T03:19:33.075Z,101614.09
2022-10-05T03:21:59.609Z,101614.91
2022-10-05T03:24:41.331Z,101612.44
2022-10-05T03:27:38.924Z,101608.25
2022-10-05T03:30:12.412Z,101604.09
2022-10-05T03:32:38.943Z,101598.00
2022-10-05T03:35:31.669Z,101597.66
2022-10-05T03:38:01.174Z,101586.28
2022-10-05T03:40:38.563Z,101585.56
2022-10-05T03:43:32.115Z,101587.94
2022-10-05T03:46:12.500Z,101595.22
2022-10-05T03:49:21.208Z,101591.06
2022-10-05T03:52:06.915Z,101595.66
2022-10-05T03:54:39.873Z,101595.50
2022-10-05T03:57:11.530Z,101592.72
2022-10-05T03:59:56.874Z,101595.50
2022-10-05T04:02:43.702Z,101591.19
2022-10-05T04:05:10.272Z,101586.88
2022-10-05T04:07:43.546Z,101580.75
2022-10-05T04:10:15.046Z,101580.47
2022-10-05T04:12:46.391Z,101582.56
2022-10-05T04:15:27.465Z,101577.13
2022-10-05T04:18:04.355Z,101575.31
2022-10-05T04:20:53.877Z,101567.53
2022-10-05T04:23:55.412Z,101570.19
2022-10-05T04:26:37.450Z,101565.03
2022-10-05T04:29:11.418Z,101567.53
2022-10-05T04:31:42.518Z,101564.03
2022-10-05T04:34:38.428Z,101562.25
2022-10-05T04:37:08.568Z,101560.72
2022-10-05T04:39:43.897Z,101559.09
2022-10-05T04:42:22.927Z,101553.59
2022-10-05T04:45:20.004Z,101558.75
2022-10-05T04:48:03.582Z,101553.16
2022-10-05T04:50:59.184Z,101550.81
2022-10-05T04:53:37.031Z,101542.81
2022-10-05T04:56:19.703Z,101541.84
2022-10-05T04:59:17.550Z,101549.78
2022-10-05T05:02:03.516Z,101554.59
2022-10-05T05:05:07.052Z,101555.38
2022-10-05T05:07:42.525Z,101562.63
2022-10-05T05:10:22.536Z,101562.47
2022-10-05T05:13:25.860Z,101557.72
2022-10-05T05:16:02.256Z,101557.88
2022-10-05T05:18:56.671Z,101558.84
2022-10-05T05:21:50.619Z,101557.16
2022-10-05T05:24:31.297Z,101559.00
2022-10-05T05:27:10.713Z,101554.53
2022-10-05T05:30:01.550Z,101557.50
2022-10-05T05:32:44.260Z,101561.66
2022-10-05T05:35:41.966Z,101561.81
2022-10-05T05:38:20.659Z,101560.16
2022-10-05T05:40:56.512Z,101571.25
2022-10-05T05:43:49.544Z,101568.91
2022-10-05T05:47:01.657Z,101573.53
2022-10-05T05:50:07.057Z,101561.94
2022-10-05T05:52:49.262Z,101563.97
2022-10-05T05:55:29.946Z,101563.69
2022-10-05T05:58:25.785Z,101557.03
2022-10-05T06:01:02.799Z,101562.16
2022-10-05T06:03:44.323Z,101562.84
2022-10-05T06:06:14.533Z,101562.69
2022-10-05T06:08:54.109Z,101555.88
2022-10-05T06:11:41.309Z,101556.88
2022-10-05T06:14:32.442Z,101553.09
2022-10-05T06:17:12.396Z,101543.50
2022-10-05T06:19:39.324Z,101550.44
2022-10-05T06:22:12.375Z,101552.09
2022-10-05T06:24:56.457Z,101550.66
2022-10-05T06:27:37.033Z,101549.16
2022-10-05T06:30:16.192Z,101549.81
2022-10-05T06:33:01.389Z,101554.16
2022-10-05T06:35:40.218Z,101558.16
2022-10-05T06:38:31.777Z,101556.16
2022-10-05T06:41:15.816Z,101564.81
2022-10-05T06:43:54.299Z,101563.13
2022-10-05T06:46:28.856Z,101574.56
2022-10-05T06:49:14.310Z,101575.38
2022-10-05T06:51:59.424Z,101571.75
2022-10-05T06:54:35.679Z,101581.19
2022-10-05T06:57:04.476Z,101585.50
2022-10-05T06:59:40.539Z,101578.25
2022-10-05T07:02:22.592Z,101583.38
2022-10-05T07:05:06.473Z,101575.13
2022-10-05T07:07:47.960Z,101578.47
2022-10-05T07:10:27.750Z,101580.41
2022-10-05T07:13:06.512Z,101571.50
2022-10-05T07:16:01.846Z,101576.13
2022-10-05T07:19:03.723Z,101568.69
2022-10-05T07:21:39.376Z,101578.00
2022-10-05T07:24:41.320Z,101581.31
2022-10-05T07:27:10.975Z,101564.75
2022-10-05T07:29:55.988Z,101576.84
2022-10-05T07:32:36.913Z,101574.88
2022-10-05T07:35:42.613Z,101570.25
2022-10-05T07:38:24.310Z,101579.84
2022-10-05T07:41:19.402Z,101578.91
2022-10-05T07:44:13.205Z,101578.91
2022-10-05T07:46:44.786Z,101572.47
2022-10-05T07:49:21.802Z,101567.81
2022-10-05T07:51:56.360Z,101571.31
2022-10-05T07:55:08.198Z,101573.31
2022-10-05T07:57:56.467Z,101571.19
2022-10-05T08:00:24.922Z,101569.38
2022-10-05T08:02:55.809Z,101569.53
2022-10-05T08:05:26.822Z,101568.88
2022-10-05T08:08:30.469Z,101561.59
2022-10-05T08:11:05.436Z,101560.44
2022-10-05T08:13:39.365Z,101566.09
2022-10-05T08:16:14.405Z,101557.84
2022-10-05T08:18:53.076Z,101562.00
2022-10-05T08:21:36.317Z,101551.41
2022-10-05T08:24:41.658Z,101544.34
2022-10-05T08:27:11.367Z,101542.69
2022-10-05T08:29:50.704Z,101537.75
2022-10-05T08:32:27.927Z,101543.03
2022-10-05T08:35:26.466Z,101546.03
2022-10-05T08:37:53.597Z,101557.78
2022-10-05T08:40:39.290Z,101547.03
2022-10-05T08:43:18.096Z,101548.72
2022-10-05T08:45:59.964Z,101542.44
2022-10-05T08:48:48.175Z,101538.47
2022-10-05T08:51:37.838Z,101540.13
2022-10-05T08:54:13.899Z,101534.66
2022-10-05T08:56:51.564Z,101529.22
2022-10-05T08:59:39.657Z,101525.59
2022-10-05T09:02:51.073Z,101530.91
2022-10-05T09:05:58.276Z,101531.41
2022-10-05T09:09:06.342Z,101524.78
2022-10-05T09:11:37.317Z,101521.97
2022-10-05T09:14:22.224Z,101514.84
2022-10-05T09:17:25.736Z,101522.63
2022-10-05T09:20:18.469Z,101520.66
2022-10-05T09:22:54.399Z,101522.16
2022-10-05T09:25:54.863Z,101506.91
2022-10-05T09:28:45.825Z,101498.81
2022-10-05T09:31:19.032Z,101493.19
2022-10-05T09:34:16.562Z,101489.88
2022-10-05T09:37:01.414Z,101489.22
2022-10-05T09:39:57.842Z,101483.25
2022-10-05T09:42:39.789Z,101487.41
2022-10-05T09:45:06.447Z,101490.38
2022-10-05T09:47:51.524Z,101484.75
2022-10-05T09:50:54.181Z,101488.91
2022-10-05T09:53:20.706Z,101490.91
2022-10-05T09:56:14.873Z,101489.56
2022-10-05T09:58:52.210Z,101494.53
2022-10-05T10:01:46.515Z,101490.09
2022-10-05T10:04:30.454Z,101484.63
2022-10-05T10:07:34.780Z,101489.25
2022-10-05T10:10:45.103Z,101486.59
2022-10-05T10:13:11.635Z,101494.06
2022-10-05T10:15:54.674Z,101487.09
2022-10-05T10:18:49.871Z,101482.59
2022-10-05T10:21:35.215Z,101482.59
2022-10-05T10:24:35.418Z,101487.91
2022-10-05T10:27:23.275Z,101493.06
2022-10-05T10:29:59.166Z,101481.59
2022-10-05T10:32:54.147Z,101480.78
2022-10-05T10:35:20.854Z,101477.81
2022-10-05T10:37:58.523Z,101461.91
2022-10-05T10:40:27.113Z,101475.66
2022-10-05T10:43:11.940Z,101468.50
2022-10-05T10:46:03.386Z,101464.53
2022-10-05T10:48:29.969Z,101463.38
2022-10-05T10:51:02.465Z,101456.09
2022-10-05T10:53:46.599Z,101454.06
2022-10-05T10:56:34.727Z,101457.72
2022-10-05T10:59:20.140Z,101447.81
2022-10-05T11:01:59.828Z,101448.78
2022-10-05T11:04:51.205Z,101441.50
2022-10-05T11:07:55.414Z,101441.31
2022-10-05T11:10:40.473Z,101439.47
2022-10-05T11:13:34.959Z,101440.31
2022-10-05T11:16:31.273Z,101429.88
2022-10-05T11:19:10.074Z,101427.06
2022-10-05T11:21:42.369Z,101429.72
2022-10-05T11:25:06.218Z,101424.41
2022-10-05T11:28:04.856Z,101434.69
2022-10-05T11:30:50.299Z,101426.53
2022-10-05T11:33:42.909Z,101428.88
2022-10-05T11:36:31.405Z,101426.22
2022-10-05T11:39:07.628Z,101424.22
2022-10-05T11:42:13.127Z,101421.59
2022-10-05T11:44:58.143Z,101419.72
2022-10-05T11:47:27.423Z,101426.69
2022-10-05T11:50:11.716Z,101419.41
2022-10-05T11:52:56.801Z,101405.63
2022-10-05T11:55:26.330Z,101398.31
2022-10-05T11:58:00.770Z,101398.16
2022-10-05T12:00:42.824Z,101394.66
2022-10-05T12:03:36.564Z,101382.72
2022-10-05T12:06:31.235Z,101386.03
2022-10-05T12:09:11.737Z,101388.69
2022-10-05T12:11:54.319Z,101388.19
2022-10-05T12:14:36.881Z,101384.03
2022-10-05T12:17:23.899Z,101368.13
2022-10-05T12:19:55.587Z,101372.59
2022-10-05T12:22:28.433Z,101378.72
2022-10-05T12:25:11.859Z,101370.09
2022-10-05T12:27:46.891Z,101367.63
2022-10-05T12:30:27.506Z,101365.44
2022-10-05T12:33:19.740Z,101371.41
2022-10-05T12:36:00.810Z,101370.22
2022-10-05T12:38:32.867Z,101375.38
2022-10-05T12:41:08.221Z,101372.72
2022-10-05T12:43:51.529Z,101367.78
2022-10-05T12:46:31.280Z,101367.94
2022-10-05T12:49:16.099Z,101370.59
2022-10-05T12:51:46.733Z,101364.63
2022-10-05T12:54:30.693Z,101371.78
2022-10-05T12:57:23.689Z,101366.47
2022-10-05T13:00:01.116Z,101363.13
2022-10-05T13:02:44.343Z,101360.78
2022-10-05T13:05:10.812Z,101364.41
2022-10-05T13:07:58.506Z,101363.25
2022-10-05T13:10:33.987Z,101363.09
2022-10-05T13:13:25.575Z,101359.59
2022-10-05T13:16:09.535Z,101362.69
2022-10-05T13:19:04.193Z,101361.59
2022-10-05T13:21:59.897Z,101354.56
2022-10-05T13:24:31.567Z,101351.00
2022-10-05T13:30:52.610Z,101351.75
2022-10-05T13:33:29.738Z,101350.06
2022-10-05T13:35:59.610Z,101343.84
2022-10-05T13:38:58.755Z,101342.66
2022-10-05T13:41:31.531Z,101335.44
2022-10-05T13:44:08.972Z,101341.56
2022-10-05T13:47:10.378Z,101337.53
2022-10-05T13:52:42.335Z,101331.69
2022-10-05T13:55:26.662Z,101333.44
2022-10-05T13:58:05.928Z,101333.38
2022-10-05T14:00:39.640Z,101334.84
2022-10-05T14:03:28.001Z,101327.97
2022-10-05T14:05:59.944Z,101324.75
2022-10-05T14:08:33.544Z,101327.06
2022-10-05T14:11:01.636Z,101330.28
2022-10-05T14:13:46.631Z,101324.03
2022-10-05T14:16:13.273Z,101324.88
2022-10-05T14:18:52.920Z,101313.88
2022-10-05T14:21:23.284Z,101324.59
2022-10-05T14:23:53.272Z,101314.06
2022-10-05T14:26:25.898Z,101310.81
2022-10-05T14:29:21.871Z,101316.06
2022-10-05T14:32:01.914Z,101307.81
2022-10-05T14:34:36.695Z,101311.75
2022-10-05T14:37:23.610Z,101318.88
2022-10-05T14:39:52.243Z,101316.66
2022-10-05T14:42:19.713Z,101318.53
2022-10-05T14:45:13.123Z,101318.31
2022-10-05T14:48:14.947Z,101316.66
2022-10-05T14:50:51.785Z,101310.88
2022-10-05T14:53:24.915Z,101309.25
2022-10-05T14:56:20.111Z,101299.72
2022-10-05T14:59:14.279Z,101305.34
2022-10-05T15:02:10.939Z,101298.69
2022-10-05T15:04:44.155Z,101307.31
2022-10-05T15:07:20.082Z,101303.25
2022-10-05T15:10:00.409Z,101293.97
2022-10-05T15:12:39.997Z,101288.03
2022-10-05T15:15:25.435Z,101291.31
2022-10-05T15:17:58.310Z,101289.84
2022-10-05T15:20:41.251Z,101282.41
2022-10-05T15:23:26.273Z,101280.63
2022-10-05T15:26:17.411Z,101285.56
2022-10-05T15:28:54.374Z,101292.00
2022-10-05T15:31:56.260Z,101282.09
2022-10-05T15:34:30.171Z,101279.34
2022-10-05T15:37:07.935Z,101277.97
2022-10-05T15:39:55.626Z,101270.81
2022-10-05T15:42:39.548Z,101271.63
2022-10-05T15:45:32.592Z,101266.00
2022-10-05T15:48:17.411Z,101267.59
2022-10-05T15:50:46.758Z,101262.78
2022-10-05T15:53:19.851Z,101263.81
2022-10-05T15:56:10.835Z,101266.47
2022-10-05T15:59:31.238Z,101262.53
2022-10-05T16:02:01.535Z,101270.84
2022-10-05T16:04:36.743Z,101269.69
2022-10-05T16:07:22.436Z,101270.06
2022-10-05T16:09:57.936Z,101273.75
2022-10-05T16:12:39.809Z,101266.28
2022-10-05T16:15:35.409Z,101270.78
2022-10-05T16:18:13.968Z,101276.47
2022-10-05T16:21:34.134Z,101276.81
2022-10-05T16:24:10.575Z,101278.84
2022-10-05T16:26:55.461Z,101282.66
2022-10-05T16:29:36.162Z,101272.22
2022-10-05T16:32:07.336Z,101279.72
2022-10-05T16:34:36.754Z,101277.91
2022-10-05T16:37:06.090Z,101279.88
2022-10-05T16:39:51.274Z,101276.59
2022-10-05T16:42:34.763Z,101274.94
2022-10-05T16:45:07.013Z,101272.47
2022-10-05T16:47:52.281Z,101274.28
2022-10-05T16:50:29.294Z,101278.97
2022-10-05T16:53:02.187Z,101276.19
2022-10-05T16:55:42.161Z,101271.56
2022-10-05T16:58:16.314Z,101275.06
2022-10-05T17:00:53.587Z,101278.25
2022-10-05T17:03:40.047Z,101270.09
2022-10-05T17:06:27.277Z,101271.56
2022-10-05T17:09:13.506Z,101270.75
2022-10-05T17:12:19.185Z,101271.66
2022-10-05T17:14:48.870Z,101269.50
2022-10-05T17:17:37.225Z,101275.16
2022-10-05T17:20:31.949Z,101263.72
2022-10-05T17:23:40.270Z,101266.84
2022-10-05T17:26:32.149Z,101269.63
2022-10-05T17:29:26.529Z,101268.78
2022-10-05T17:32:10.155Z,101270.47
2022-10-05T17:34:39.145Z,101266.13
2022-10-05T17:37:31.876Z,101269.00
2022-10-05T17:39:59.068Z,101267.69
2022-10-05T17:42:26.816Z,101268.66
2022-10-05T17:45:19.563Z,101265.38
2022-10-05T17:47:58.081Z,101272.34
2022-10-05T17:50:59.203Z,101260.69
2022-10-05T17:54:03.551Z,101270.97
2022-10-05T17:56:31.845Z,101263.00
2022-10-05T17:59:01.169Z,101270.34
2022-10-05T18:01:32.795Z,101266.50
2022-10-05T18:04:11.456Z,101265.31
2022-10-05T18:06:57.737Z,101262.00
2022-10-05T18:09:25.018Z,101266.34
2022-10-05T18:12:12.784Z,101268.16
2022-10-05T18:15:22.348Z,101278.94
2022-10-05T18:17:50.687Z,101277.13
2022-10-05T18:20:30.053Z,101271.31
2022-10-05T18:23:02.653Z,101280.97
2022-10-05T18:25:39.155Z,101278.47
2022-10-05T18:28:11.783Z,101281.31
2022-10-05T18:30:41.218Z,101288.44
2022-10-05T18:33:27.133Z,101289.44
2022-10-05T18:36:12.359Z,101287.13
2022-10-05T18:39:03.920Z,101286.97
2022-10-05T18:41:42.797Z,101281.19
2022-10-05T18:44:12.323Z,101282.19
2022-10-05T18:46:46.462Z,101277.69
2022-10-05T18:49:42.498Z,101284.00
2022-10-05T18:52:30.909Z,101284.84
2022-10-05T18:55:10.555Z,101284.84
2022-10-05T18:57:46.019Z,101283.19
2022-10-05T19:00:19.086Z,101279.38
2022-10-05T19:02:51.852Z,101285.31
2022-10-05T19:05:56.757Z,101287.81
2022-10-05T19:08:58.014Z,101290.28
2022-10-05T19:11:43.564Z,101291.09
2022-10-05T19:14:27.177Z,101290.28
2022-10-05T19:17:22.784Z,101293.28
2022-10-05T19:19:58.261Z,101292.28
2022-10-05T19:23:09.451Z,101295.09
2022-10-05T19:25:36.703Z,101297.97
2022-10-05T19:28:08.508Z,101291.63
2022-10-05T19:30:53.953Z,101294.28
2022-10-05T19:33:20.837Z,101297.59
2022-10-05T19:36:18.449Z,101297.41
2022-10-05T19:39:03.467Z,101299.25
2022-10-05T19:41:42.920Z,101299.72
2022-10-05T19:44:23.309Z,101304.19
2022-10-05T19:46:59.493Z,101298.91
2022-10-05T19:49:44.365Z,101302.56
2022-10-05T19:52:13.733Z,101300.75
2022-10-05T19:54:41.841Z,101311.38
2022-10-05T19:57:17.066Z,101308.72
2022-10-05T19:59:47.863Z,101313.19
2022-10-05T20:02:16.903Z,101319.69
2022-10-05T20:04:45.603Z,101323.81
2022-10-05T20:07:15.151Z,101318.50
2022-10-05T20:09:59.834Z,101328.47
2022-10-05T20:12:50.752Z,101330.78
2022-10-05T20:15:40.888Z,101334.09
2022-10-05T20:18:54.693Z,101337.09
2022-10-05T20:21:47.492Z,101339.75
2022-10-05T20:24:18.081Z,101339.91
2022-10-05T20:27:16.531Z,101342.41
2022-10-05T20:29:44.530Z,101348.34
2022-10-05T20:32:17.825Z,101344.88
2022-10-05T20:34:46.655Z,101348.34
2022-10-05T20:37:15.404Z,101355.34
2022-10-05T20:39:42.094Z,101353.19
2022-10-05T20:42:09.644Z,101361.84
2022-10-05T20:44:36.955Z,101368.31
2022-10-05T20:47:04.498Z,101374.63
2022-10-05T20:49:31.805Z,101380.09
2022-10-05T20:51:58.885Z,101382.59
2022-10-05T20:54:26.559Z,101390.38
2022-10-05T20:56:54.912Z,101395.53
2022-10-05T20:59:22.915Z,101407.34
2022-10-05T21:01:49.661Z,101397.22
2022-10-05T21:04:24.116Z,101398.06
2022-10-05T21:06:51.019Z,101406.66
2022-10-05T21:09:19.306Z,101406.00
2022-10-05T21:11:47.265Z,101415.81
2022-10-05T21:14:14.210Z,101416.97
2022-10-05T21:16:41.381Z,101422.44
2022-10-05T21:19:14.466Z,101420.81
2022-10-05T21:21:42.367Z,101424.13
2022-10-05T21:24:09.662Z,101429.78
2022-10-05T21:26:37.495Z,101436.25
2022-10-05T21:29:07.783Z,101433.44
2022-10-05T21:31:37.571Z,101437.09
2022-10-05T21:34:04.531Z,101439.25
2022-10-05T21:36:32.182Z,101434.94
2022-10-05T21:38:59.026Z,101443.06
2022-10-05T21:41:25.711Z,101431.66
2022-10-05T21:43:52.441Z,101433.47
2022-10-05T21:46:21.999Z,101439.94
2022-10-05T21:48:49.568Z,101438.47
2022-10-05T21:51:18.548Z,101453.69
2022-10-05T21:54:03.590Z,101452.06
2022-10-05T21:56:36.477Z,101448.22
2022-10-05T21:59:05.277Z,101446.25
2022-10-05T22:01:31.914Z,101449.88
2022-10-05T22:03:58.484Z,101453.22
2022-10-05T22:06:25.121Z,101459.19
2022-10-05T22:08:51.641Z,101461.03
2022-10-05T22:11:18.393Z,101467.13
2022-10-05T22:13:47.936Z,101463.53
2022-10-05T22:16:16.197Z,101467.97
2022-10-05T22:18:43.229Z,101465.31
2022-10-05T22:21:12.066Z,101472.97
2022-10-05T22:23:43.527Z,101466.97
2022-10-05T22:26:12.000Z,101470.81
2022-10-05T22:28:40.008Z,101475.47
2022-10-05T22:31:07.517Z,101472.63
2022-10-05T22:33:34.396Z,101477.75
2022-10-05T22:36:01.385Z,101480.78
2022-10-05T22:38:30.225Z,101478.94
2022-10-05T22:40:57.311Z,101472.97
2022-10-05T22:43:24.790Z,101470.31
2022-10-05T22:45:51.353Z,101470.31
2022-10-05T22:48:18.591Z,101468.47
2022-10-05T22:50:45.841Z,101473.97
2022-10-05T22:53:12.995Z,101472.13
2022-10-05T22:55:39.637Z,101480.09
2022-10-05T22:58:06.282Z,101474.78
2022-10-05T23:00:56.509Z,101481.25
2022-10-05T23:03:19.866Z,101476.94
2022-10-05T23:05:46.451Z,101473.97
2022-10-05T23:08:13.025Z,101472.31
2022-10-05T23:10:39.630Z,101489.06
2022-10-05T23:13:06.287Z,101480.94
2022-10-05T23:15:33.787Z,101494.06
2022-10-05T23:18:00.366Z,101486.25
2022-10-05T23:20:26.953Z,101487.44
2022-10-05T23:22:53.788Z,101481.94
2022-10-05T23:25:22.195Z,101488.75
2022-10-05T23:27:48.794Z,101490.09
2022-10-05T23:30:15.584Z,101491.91
2022-10-05T23:32:43.365Z,101489.25
2022-10-05T23:35:11.710Z,101495.38
2022-10-05T23:37:43.501Z,101492.22
2022-10-05T23:40:12.321Z,101492.91
2022-10-05T23:42:41.830Z,101494.53
2022-10-05T23:45:12.210Z,101496.72
2022-10-05T23:47:40.226Z,101497.72
2022-10-05T23:50:08.227Z,101500.38
2022-10-05T23:52:35.603Z,101507.34
2022-10-05T23:55:03.527Z,101501.88
2022-10-05T23:57:30.191Z,101503.19
2022-10-05T23:59:56.769Z,101508.34
